Blue Grass Information

FAA: LEX - ICAO: KLEX

Blue Grass (Airport) Location

State Kentucky
County Fayette
City Lexington
Blue Grass (Airport) is 4 miles west of Lexington, KY.
Latitude 38-02-12.3000N
Longitude 084-36-31.1000W
Elevation 979ft

Blue Grass METARs

METAR KLEX 032254Z 21005KT 10SM CLR 17/07 A2993 RMK AO2 SLP136 T01670067
Altimeter 29.93"
Temperature 16.7°C (62.1°F)
Wind 210° at 5KT
Clouds Skies are clear.
Visibility 10.0mi
Time observed: 2021-12-03T22:54:00Z

Blue Grass (Airport) Details

Status Operational
Activation July 1944
Ownership Public
Usage Public
Chart CINCINNATI
ATC on-site Yes
Beacon schedule sunset-sunrise
Beacon color clear green

Blue Grass (Airport) Contacts

Owner LEXINGTON-FAYETTE CO ARPT BRD
Owner address 4000 TERMINAL DRIVE, SUITE 206, LEXINGTON, KY 40510
Owner phone 859-425-3100
Manager JAMES STANLEY
Manager address 540 JETTS DRIVE, JACKSON, KY 41339
Manager phone 606-666-6449

Blue Grass Radio Frequencies

Blue Grass (Airport) Radio Frequencies

UNICOM 122.95
Common traffic advisory frequency (CTAF) N/A